sensor_id;sensor_type;location;lat;lon;timestamp;pressure;altitude;pressure_sealevel;temperature;humidity
51227;BME280;42714;48.260;10.980;2024-02-26T00:09:34;953.0;;;3.4;82.0
51227;BME280;42714;48.260;10.980;2024-02-26T00:14:35;953.0;;;3.4;81.9
51227;BME280;42714;48.260;10.980;2024-02-26T00:19:36;953.0;;;3.2;82.2
51227;BME280;42714;48.260;10.980;2024-02-26T00:24:39;952.9;;;3.2;82.2
51227;BME280;42714;48.260;10.980;2024-02-26T00:29:38;953.0;;;3.0;82.1
51227;BME280;42714;48.260;10.980;2024-02-26T00:34:39;953.0;;;2.8;82.5
51227;BME280;42714;48.260;10.980;2024-02-26T00:39:40;952.9;;;2.7;83.0
51227;BME280;42714;48.260;10.980;2024-02-26T00:44:41;953.0;;;2.6;83.6
51227;BME280;42714;48.260;10.980;2024-02-26T00:49:42;952.9;;;2.5;84.4
51227;BME280;42714;48.260;10.980;2024-02-26T00:54:43;952.9;;;2.5;85.8
51227;BME280;42714;48.260;10.980;2024-02-26T00:59:44;952.9;;;2.4;87.0
51227;BME280;42714;48.260;10.980;2024-02-26T01:04:45;952.9;;;2.4;87.7
51227;BME280;42714;48.260;10.980;2024-02-26T01:09:46;952.8;;;2.4;88.4
51227;BME280;42714;48.260;10.980;2024-02-26T01:14:47;952.7;;;2.3;88.8
51227;BME280;42714;48.260;10.980;2024-02-26T01:19:48;952.7;;;2.2;89.5
51227;BME280;42714;48.260;10.980;2024-02-26T01:24:50;952.7;;;2.2;90.0
51227;BME280;42714;48.260;10.980;2024-02-26T01:29:50;952.7;;;2.1;90.5
51227;BME280;42714;48.260;10.980;2024-02-26T01:34:51;952.8;;;2.1;90.8
51227;BME280;42714;48.260;10.980;2024-02-26T01:39:52;952.8;;;2.0;90.9
51227;BME280;42714;48.260;10.980;2024-02-26T01:44:53;952.8;;;1.9;91.0
51227;BME280;42714;48.260;10.980;2024-02-26T01:49:54;952.7;;;1.9;90.9
51227;BME280;42714;48.260;10.980;2024-02-26T01:54:55;952.7;;;1.8;91.1
51227;BME280;42714;48.260;10.980;2024-02-26T01:59:56;952.6;;;1.9;91.0
51227;BME280;42714;48.260;10.980;2024-02-26T02:04:57;952.6;;;1.9;90.9
51227;BME280;42714;48.260;10.980;2024-02-26T02:09:58;952.6;;;2.0;90.9
51227;BME280;42714;48.260;10.980;2024-02-26T02:15:00;952.5;;;2.1;90.7
51227;BME280;42714;48.260;10.980;2024-02-26T02:20:01;952.5;;;2.2;90.4
51227;BME280;42714;48.260;10.980;2024-02-26T02:25:02;952.6;;;2.2;89.8
51227;BME280;42714;48.260;10.980;2024-02-26T02:35:04;952.6;;;2.3;88.4
51227;BME280;42714;48.260;10.980;2024-02-26T02:45:06;952.4;;;2.3;87.3
51227;BME280;42714;48.260;10.980;2024-02-26T02:50:07;952.4;;;2.4;87.1
51227;BME280;42714;48.260;10.980;2024-02-26T02:55:08;952.3;;;2.4;86.9
51227;BME280;42714;48.260;10.980;2024-02-26T03:05:10;952.4;;;2.5;86.5
51227;BME280;42714;48.260;10.980;2024-02-26T03:10:11;952.4;;;2.5;85.8
51227;BME280;42714;48.260;10.980;2024-02-26T03:15:12;952.4;;;2.6;85.3
51227;BME280;42714;48.260;10.980;2024-02-26T03:20:13;952.5;;;2.6;84.8
51227;BME280;42714;48.260;10.980;2024-02-26T03:25:14;952.5;;;2.7;84.5
51227;BME280;42714;48.260;10.980;2024-02-26T03:30:15;952.4;;;2.7;84.5
51227;BME280;42714;48.260;10.980;2024-02-26T03:35:16;952.4;;;2.8;84.4
51227;BME280;42714;48.260;10.980;2024-02-26T03:40:17;952.4;;;2.9;84.1
51227;BME280;42714;48.260;10.980;2024-02-26T03:45:18;952.5;;;3.0;83.6
51227;BME280;42714;48.260;10.980;2024-02-26T03:50:19;952.5;;;3.0;83.2
51227;BME280;42714;48.260;10.980;2024-02-26T03:55:20;952.4;;;2.9;83.0
51227;BME280;42714;48.260;10.980;2024-02-26T04:00:21;952.4;;;2.9;83.0
51227;BME280;42714;48.260;10.980;2024-02-26T04:05:22;952.4;;;2.8;83.0
51227;BME280;42714;48.260;10.980;2024-02-26T04:10:23;952.4;;;2.7;83.2
51227;BME280;42714;48.260;10.980;2024-02-26T04:15:24;952.4;;;2.7;83.5
51227;BME280;42714;48.260;10.980;2024-02-26T04:20:25;952.4;;;2.6;83.8
51227;BME280;42714;48.260;10.980;2024-02-26T04:25:26;952.5;;;2.5;84.2
51227;BME280;42714;48.260;10.980;2024-02-26T04:30:27;952.5;;;2.4;84.5
51227;BME280;42714;48.260;10.980;2024-02-26T04:35:28;952.5;;;2.3;85.1
51227;BME280;42714;48.260;10.980;2024-02-26T04:40:29;952.6;;;2.4;85.4
51227;BME280;42714;48.260;10.980;2024-02-26T04:45:30;952.6;;;2.5;85.6
51227;BME280;42714;48.260;10.980;2024-02-26T04:50:31;952.6;;;2.7;85.7
51227;BME280;42714;48.260;10.980;2024-02-26T04:55:32;952.6;;;2.8;85.5
51227;BME280;42714;48.260;10.980;2024-02-26T05:00:33;952.5;;;2.9;84.7
51227;BME280;42714;48.260;10.980;2024-02-26T05:05:34;952.7;;;2.9;84.7
51227;BME280;42714;48.260;10.980;2024-02-26T05:10:35;952.7;;;3.0;84.5
51227;BME280;42714;48.260;10.980;2024-02-26T05:15:36;952.9;;;2.8;84.3
51227;BME280;42714;48.260;10.980;2024-02-26T05:20:37;952.9;;;2.8;84.6
51227;BME280;42714;48.260;10.980;2024-02-26T05:25:38;952.9;;;2.8;85.1
51227;BME280;42714;48.260;10.980;2024-02-26T05:30:39;953.0;;;2.8;85.5
51227;BME280;42714;48.260;10.980;2024-02-26T05:35:40;953.0;;;2.9;85.7
51227;BME280;42714;48.260;10.980;2024-02-26T05:40:41;952.9;;;3.1;85.4
51227;BME280;42714;48.260;10.980;2024-02-26T05:45:42;952.9;;;3.1;84.9
51227;BME280;42714;48.260;10.980;2024-02-26T05:50:43;953.0;;;3.1;84.9
51227;BME280;42714;48.260;10.980;2024-02-26T05:55:44;953.1;;;3.2;84.6
51227;BME280;42714;48.260;10.980;2024-02-26T06:00:45;953.0;;;3.3;83.7
51227;BME280;42714;48.260;10.980;2024-02-26T06:05:46;953.0;;;3.2;83.1
51227;BME280;42714;48.260;10.980;2024-02-26T06:10:47;953.1;;;3.2;83.0
51227;BME280;42714;48.260;10.980;2024-02-26T06:15:48;953.2;;;3.4;82.4
51227;BME280;42714;48.260;10.980;2024-02-26T06:20:49;953.2;;;3.6;81.7
51227;BME280;42714;48.260;10.980;2024-02-26T06:25:50;953.3;;;3.8;80.4
51227;BME280;42714;48.260;10.980;2024-02-26T06:30:51;953.5;;;4.0;79.3
51227;BME280;42714;48.260;10.980;2024-02-26T06:35:52;953.8;;;3.9;78.8
51227;BME280;42714;48.260;10.980;2024-02-26T06:40:53;953.8;;;4.0;79.0
51227;BME280;42714;48.260;10.980;2024-02-26T06:45:54;953.7;;;4.1;78.5
51227;BME280;42714;48.260;10.980;2024-02-26T06:50:55;953.6;;;3.9;77.8
51227;BME280;42714;48.260;10.980;2024-02-26T06:55:56;953.6;;;3.8;79.2
51227;BME280;42714;48.260;10.980;2024-02-26T07:00:57;953.6;;;4.0;78.4
51227;BME280;42714;48.260;10.980;2024-02-26T07:05:58;953.7;;;4.0;78.6
51227;BME280;42714;48.260;10.980;2024-02-26T07:10:59;953.7;;;4.2;78.1
51227;BME280;42714;48.260;10.980;2024-02-26T07:16:00;953.8;;;4.2;78.4
51227;BME280;42714;48.260;10.980;2024-02-26T07:21:01;953.8;;;4.4;77.0
51227;BME280;42714;48.260;10.980;2024-02-26T07:26:02;953.8;;;4.6;76.4
51227;BME280;42714;48.260;10.980;2024-02-26T07:31:03;953.8;;;4.7;76.1
51227;BME280;42714;48.260;10.980;2024-02-26T07:36:04;953.7;;;4.8;75.1
51227;BME280;42714;48.260;10.980;2024-02-26T07:41:05;953.7;;;4.7;75.0
51227;BME280;42714;48.260;10.980;2024-02-26T07:46:06;953.7;;;4.8;75.1
51227;BME280;42714;48.260;10.980;2024-02-26T07:51:07;953.7;;;5.2;74.3
51227;BME280;42714;48.260;10.980;2024-02-26T07:56:08;953.6;;;5.8;72.5
51227;BME280;42714;48.260;10.980;2024-02-26T08:01:09;953.8;;;6.5;69.8
51227;BME280;42714;48.260;10.980;2024-02-26T08:06:10;953.9;;;7.2;67.5
51227;BME280;42714;48.260;10.980;2024-02-26T08:11:11;953.9;;;7.3;66.5
51227;BME280;42714;48.260;10.980;2024-02-26T08:16:12;953.7;;;7.6;64.8
51227;BME280;42714;48.260;10.980;2024-02-26T08:21:13;953.7;;;7.9;63.8
51227;BME280;42714;48.260;10.980;2024-02-26T08:26:14;953.8;;;7.9;64.0
51227;BME280;42714;48.260;10.980;2024-02-26T08:31:15;953.6;;;7.8;62.6
51227;BME280;42714;48.260;10.980;2024-02-26T08:36:16;953.5;;;7.6;64.0
51227;BME280;42714;48.260;10.980;2024-02-26T08:41:17;953.6;;;7.5;65.3
51227;BME280;42714;48.260;10.980;2024-02-26T08:46:18;953.7;;;7.3;66.0
51227;BME280;42714;48.260;10.980;2024-02-26T08:51:19;953.6;;;7.1;66.7
51227;BME280;42714;48.260;10.980;2024-02-26T08:56:20;953.7;;;7.2;66.0
51227;BME280;42714;48.260;10.980;2024-02-26T09:01:21;953.6;;;7.5;65.1
51227;BME280;42714;48.260;10.980;2024-02-26T09:06:22;953.7;;;7.7;63.3
51227;BME280;42714;48.260;10.980;2024-02-26T09:11:23;953.7;;;8.0;62.8
51227;BME280;42714;48.260;10.980;2024-02-26T09:16:24;953.7;;;8.4;61.1
51227;BME280;42714;48.260;10.980;2024-02-26T09:21:25;953.6;;;8.8;59.9
51227;BME280;42714;48.260;10.980;2024-02-26T09:26:26;953.6;;;9.2;58.4
51227;BME280;42714;48.260;10.980;2024-02-26T09:31:27;953.6;;;9.6;57.5
51227;BME280;42714;48.260;10.980;2024-02-26T09:36:28;953.6;;;9.9;57.2
51227;BME280;42714;48.260;10.980;2024-02-26T09:41:30;953.6;;;10.2;56.4
51227;BME280;42714;48.260;10.980;2024-02-26T09:46:30;953.6;;;10.5;55.6
51227;BME280;42714;48.260;10.980;2024-02-26T09:51:31;953.6;;;10.2;54.6
51227;BME280;42714;48.260;10.980;2024-02-26T09:56:32;953.5;;;10.3;55.9
51227;BME280;42714;48.260;10.980;2024-02-26T10:01:33;953.6;;;10.4;56.8
51227;BME280;42714;48.260;10.980;2024-02-26T10:06:34;953.6;;;10.6;55.6
51227;BME280;42714;48.260;10.980;2024-02-26T10:11:35;953.6;;;10.8;55.3
51227;BME280;42714;48.260;10.980;2024-02-26T10:16:36;953.6;;;11.0;55.4
51227;BME280;42714;48.260;10.980;2024-02-26T10:21:37;953.6;;;11.2;55.2
51227;BME280;42714;48.260;10.980;2024-02-26T10:26:38;953.7;;;11.1;55.0
51227;BME280;42714;48.260;10.980;2024-02-26T10:31:41;953.8;;;11.2;55.1
51227;BME280;42714;48.260;10.980;2024-02-26T10:36:40;953.8;;;11.3;54.3
51227;BME280;42714;48.260;10.980;2024-02-26T10:41:42;953.9;;;11.4;54.4
51227;BME280;42714;48.260;10.980;2024-02-26T10:46:42;954.0;;;11.5;53.5
51227;BME280;42714;48.260;10.980;2024-02-26T10:51:44;954.1;;;11.9;53.0
51227;BME280;42714;48.260;10.980;2024-02-26T10:56:44;954.1;;;12.5;51.4
51227;BME280;42714;48.260;10.980;2024-02-26T11:01:45;954.1;;;12.6;51.5
51227;BME280;42714;48.260;10.980;2024-02-26T11:06:46;954.2;;;13.1;50.7
51227;BME280;42714;48.260;10.980;2024-02-26T11:11:47;954.2;;;13.9;49.3
51227;BME280;42714;48.260;10.980;2024-02-26T11:16:48;954.1;;;14.3;47.9
51227;BME280;42714;48.260;10.980;2024-02-26T11:21:49;954.0;;;14.9;45.7
51227;BME280;42714;48.260;10.980;2024-02-26T11:26:52;954.0;;;14.4;46.2
51227;BME280;42714;48.260;10.980;2024-02-26T11:31:51;953.9;;;14.6;45.9
51227;BME280;42714;48.260;10.980;2024-02-26T11:36:52;953.9;;;17.0;41.3
51227;BME280;42714;48.260;10.980;2024-02-26T11:41:53;954.0;;;18.1;35.8
51227;BME280;42714;48.260;10.980;2024-02-26T11:46:54;953.8;;;17.2;37.5
51227;BME280;42714;48.260;10.980;2024-02-26T11:51:55;953.8;;;16.3;39.4
51227;BME280;42714;48.260;10.980;2024-02-26T11:56:57;953.7;;;17.0;38.1
51227;BME280;42714;48.260;10.980;2024-02-26T12:01:57;953.6;;;18.2;37.1
51227;BME280;42714;48.260;10.980;2024-02-26T12:07:00;953.5;;;17.7;37.8
51227;BME280;42714;48.260;10.980;2024-02-26T12:12:01;953.5;;;17.7;38.2
51227;BME280;42714;48.260;10.980;2024-02-26T12:17:00;953.6;;;18.3;36.9
51227;BME280;42714;48.260;10.980;2024-02-26T12:22:01;953.7;;;18.8;36.7
51227;BME280;42714;48.260;10.980;2024-02-26T12:27:02;953.8;;;19.9;34.7
51227;BME280;42714;48.260;10.980;2024-02-26T12:32:04;953.8;;;19.0;36.0
51227;BME280;42714;48.260;10.980;2024-02-26T12:37:04;954.0;;;17.5;37.5
51227;BME280;42714;48.260;10.980;2024-02-26T12:42:05;954.1;;;16.2;38.2
51227;BME280;42714;48.260;10.980;2024-02-26T12:47:06;954.1;;;15.8;38.1
51227;BME280;42714;48.260;10.980;2024-02-26T12:52:07;954.0;;;15.7;38.0
51227;BME280;42714;48.260;10.980;2024-02-26T12:57:08;954.0;;;16.1;38.6
51227;BME280;42714;48.260;10.980;2024-02-26T13:02:09;954.1;;;15.9;38.3
51227;BME280;42714;48.260;10.980;2024-02-26T13:07:10;954.0;;;15.7;38.1
51227;BME280;42714;48.260;10.980;2024-02-26T13:12:11;954.1;;;15.3;39.1
51227;BME280;42714;48.260;10.980;2024-02-26T13:17:12;954.1;;;15.1;40.0
51227;BME280;42714;48.260;10.980;2024-02-26T13:22:13;954.1;;;14.7;39.3
51227;BME280;42714;48.260;10.980;2024-02-26T13:27:20;954.2;;;14.4;41.2
51227;BME280;42714;48.260;10.980;2024-02-26T13:32:15;954.3;;;14.3;41.9
51227;BME280;42714;48.260;10.980;2024-02-26T13:37:16;954.4;;;13.8;40.9
51227;BME280;42714;48.260;10.980;2024-02-26T13:42:17;954.4;;;13.5;41.5
51227;BME280;42714;48.260;10.980;2024-02-26T13:47:18;954.4;;;13.4;42.9
51227;BME280;42714;48.260;10.980;2024-02-26T13:52:19;954.5;;;13.4;43.0
51227;BME280;42714;48.260;10.980;2024-02-26T13:57:20;954.6;;;13.2;44.0
51227;BME280;42714;48.260;10.980;2024-02-26T14:02:21;954.6;;;13.2;44.7
51227;BME280;42714;48.260;10.980;2024-02-26T14:07:22;954.6;;;13.1;43.4
51227;BME280;42714;48.260;10.980;2024-02-26T14:12:23;954.6;;;13.0;44.7
51227;BME280;42714;48.260;10.980;2024-02-26T14:17:24;954.7;;;12.8;44.7
51227;BME280;42714;48.260;10.980;2024-02-26T14:22:25;954.7;;;12.6;45.8
51227;BME280;42714;48.260;10.980;2024-02-26T14:27:26;954.8;;;12.3;47.1
51227;BME280;42714;48.260;10.980;2024-02-26T14:32:27;954.8;;;12.2;47.7
51227;BME280;42714;48.260;10.980;2024-02-26T14:37:28;954.9;;;12.0;48.5
51227;BME280;42714;48.260;10.980;2024-02-26T14:42:29;954.9;;;11.9;48.6
51227;BME280;42714;48.260;10.980;2024-02-26T14:47:30;955.0;;;11.9;49.3
51227;BME280;42714;48.260;10.980;2024-02-26T14:52:31;955.1;;;11.9;50.6
51227;BME280;42714;48.260;10.980;2024-02-26T14:57:32;955.2;;;11.8;51.7
51227;BME280;42714;48.260;10.980;2024-02-26T15:02:33;955.3;;;11.7;52.4
51227;BME280;42714;48.260;10.980;2024-02-26T15:07:34;955.3;;;11.6;53.1
51227;BME280;42714;48.260;10.980;2024-02-26T15:12:35;955.3;;;11.6;53.3
51227;BME280;42714;48.260;10.980;2024-02-26T15:17:36;955.4;;;11.6;53.3
51227;BME280;42714;48.260;10.980;2024-02-26T15:22:37;955.4;;;11.6;53.6
51227;BME280;42714;48.260;10.980;2024-02-26T15:27:38;955.4;;;11.6;54.2
51227;BME280;42714;48.260;10.980;2024-02-26T15:32:39;955.4;;;11.6;54.4
51227;BME280;42714;48.260;10.980;2024-02-26T15:37:40;955.3;;;11.6;54.9
51227;BME280;42714;48.260;10.980;2024-02-26T15:42:41;955.3;;;11.4;55.6
51227;BME280;42714;48.260;10.980;2024-02-26T15:47:42;955.3;;;11.4;55.9
51227;BME280;42714;48.260;10.980;2024-02-26T15:52:43;955.3;;;11.3;56.5
51227;BME280;42714;48.260;10.980;2024-02-26T15:57:44;955.3;;;11.2;57.0
51227;BME280;42714;48.260;10.980;2024-02-26T16:02:47;955.3;;;11.1;57.1
51227;BME280;42714;48.260;10.980;2024-02-26T16:07:48;955.3;;;11.0;58.0
51227;BME280;42714;48.260;10.980;2024-02-26T16:12:52;955.3;;;10.9;58.1
51227;BME280;42714;48.260;10.980;2024-02-26T16:17:49;955.3;;;10.9;58.1
51227;BME280;42714;48.260;10.980;2024-02-26T16:22:49;955.3;;;10.8;57.9
51227;BME280;42714;48.260;10.980;2024-02-26T16:27:50;955.4;;;10.7;57.5
51227;BME280;42714;48.260;10.980;2024-02-26T16:32:51;955.4;;;10.5;58.0
51227;BME280;42714;48.260;10.980;2024-02-26T16:37:52;955.5;;;10.5;58.0
51227;BME280;42714;48.260;10.980;2024-02-26T16:42:53;955.5;;;10.4;57.9
51227;BME280;42714;48.260;10.980;2024-02-26T16:47:54;955.5;;;10.3;58.4
51227;BME280;42714;48.260;10.980;2024-02-26T16:52:55;955.6;;;10.3;58.3
51227;BME280;42714;48.260;10.980;2024-02-26T16:57:56;955.7;;;10.2;58.8
51227;BME280;42714;48.260;10.980;2024-02-26T17:02:57;955.8;;;10.2;58.3
51227;BME280;42714;48.260;10.980;2024-02-26T17:07:58;956.0;;;10.2;58.0
51227;BME280;42714;48.260;10.980;2024-02-26T17:12:59;956.1;;;10.1;58.2
51227;BME280;42714;48.260;10.980;2024-02-26T17:18:00;956.1;;;10.1;58.3
51227;BME280;42714;48.260;10.980;2024-02-26T17:23:01;956.1;;;10.0;58.6
51227;BME280;42714;48.260;10.980;2024-02-26T17:28:03;956.2;;;10.1;58.5
51227;BME280;42714;48.260;10.980;2024-02-26T17:33:03;956.3;;;10.1;58.9
51227;BME280;42714;48.260;10.980;2024-02-26T17:38:04;956.3;;;10.0;60.3
51227;BME280;42714;48.260;10.980;2024-02-26T17:43:05;956.4;;;9.8;61.1
51227;BME280;42714;48.260;10.980;2024-02-26T17:48:06;956.5;;;9.6;62.1
51227;BME280;42714;48.260;10.980;2024-02-26T17:53:07;956.5;;;9.5;62.3
51227;BME280;42714;48.260;10.980;2024-02-26T17:58:08;956.5;;;9.6;61.7
51227;BME280;42714;48.260;10.980;2024-02-26T18:03:09;956.5;;;9.7;61.2
51227;BME280;42714;48.260;10.980;2024-02-26T18:08:10;956.4;;;9.6;60.8
51227;BME280;42714;48.260;10.980;2024-02-26T18:13:11;956.6;;;9.6;60.7
51227;BME280;42714;48.260;10.980;2024-02-26T18:18:12;956.7;;;9.5;60.8
51227;BME280;42714;48.260;10.980;2024-02-26T18:23:13;956.9;;;9.4;60.6
51227;BME280;42714;48.260;10.980;2024-02-26T18:28:15;956.8;;;9.3;61.0
51227;BME280;42714;48.260;10.980;2024-02-26T18:33:15;956.8;;;9.2;61.4
51227;BME280;42714;48.260;10.980;2024-02-26T18:38:16;956.8;;;9.1;62.2
51227;BME280;42714;48.260;10.980;2024-02-26T18:43:17;956.9;;;8.9;62.8
51227;BME280;42714;48.260;10.980;2024-02-26T18:48:18;957.0;;;8.8;63.2
51227;BME280;42714;48.260;10.980;2024-02-26T18:53:19;957.0;;;8.7;63.7
51227;BME280;42714;48.260;10.980;2024-02-26T18:58:20;957.0;;;8.7;64.5
51227;BME280;42714;48.260;10.980;2024-02-26T19:03:21;957.0;;;8.6;65.2
51227;BME280;42714;48.260;10.980;2024-02-26T19:08:23;957.0;;;8.6;65.4
51227;BME280;42714;48.260;10.980;2024-02-26T19:13:24;957.0;;;8.5;65.8
51227;BME280;42714;48.260;10.980;2024-02-26T19:18:25;957.0;;;8.3;66.4
51227;BME280;42714;48.260;10.980;2024-02-26T19:23:25;957.2;;;8.1;66.8
51227;BME280;42714;48.260;10.980;2024-02-26T19:28:26;957.4;;;8.0;67.2
51227;BME280;42714;48.260;10.980;2024-02-26T19:33:28;957.4;;;7.9;67.3
51227;BME280;42714;48.260;10.980;2024-02-26T19:38:29;957.4;;;7.8;67.6
51227;BME280;42714;48.260;10.980;2024-02-26T19:43:30;957.5;;;7.7;68.2
51227;BME280;42714;48.260;10.980;2024-02-26T19:48:31;957.6;;;7.7;68.4
51227;BME280;42714;48.260;10.980;2024-02-26T19:53:32;957.6;;;7.7;68.6
51227;BME280;42714;48.260;10.980;2024-02-26T19:58:33;957.7;;;7.7;69.2
51227;BME280;42714;48.260;10.980;2024-02-26T20:03:34;957.7;;;7.6;69.6
51227;BME280;42714;48.260;10.980;2024-02-26T20:08:35;957.7;;;7.5;70.0
51227;BME280;42714;48.260;10.980;2024-02-26T20:13:36;957.7;;;7.4;70.6
51227;BME280;42714;48.260;10.980;2024-02-26T20:18:37;957.7;;;7.3;71.3
51227;BME280;42714;48.260;10.980;2024-02-26T20:23:38;957.7;;;7.3;71.8
51227;BME280;42714;48.260;10.980;2024-02-26T20:28:39;957.8;;;7.3;72.1
51227;BME280;42714;48.260;10.980;2024-02-26T20:33:40;957.8;;;7.3;72.5
51227;BME280;42714;48.260;10.980;2024-02-26T20:38:41;957.9;;;7.4;72.6
51227;BME280;42714;48.260;10.980;2024-02-26T20:43:42;957.9;;;7.4;72.6
51227;BME280;42714;48.260;10.980;2024-02-26T20:48:43;957.9;;;7.3;72.9
51227;BME280;42714;48.260;10.980;2024-02-26T20:53:44;958.0;;;7.3;73.3
51227;BME280;42714;48.260;10.980;2024-02-26T20:58:45;958.2;;;7.0;74.3
51227;BME280;42714;48.260;10.980;2024-02-26T21:03:46;958.2;;;6.8;75.5
51227;BME280;42714;48.260;10.980;2024-02-26T21:08:47;958.2;;;6.6;76.6
51227;BME280;42714;48.260;10.980;2024-02-26T21:13:48;958.3;;;6.5;77.7
51227;BME280;42714;48.260;10.980;2024-02-26T21:18:49;958.4;;;6.4;78.6
51227;BME280;42714;48.260;10.980;2024-02-26T21:23:50;958.5;;;6.3;79.3
51227;BME280;42714;48.260;10.980;2024-02-26T21:28:51;958.5;;;6.2;79.9
51227;BME280;42714;48.260;10.980;2024-02-26T21:33:52;958.6;;;6.0;80.6
51227;BME280;42714;48.260;10.980;2024-02-26T21:38:53;958.5;;;5.9;81.1
51227;BME280;42714;48.260;10.980;2024-02-26T21:43:54;958.4;;;5.8;81.5
51227;BME280;42714;48.260;10.980;2024-02-26T21:48:55;958.5;;;5.7;81.9
51227;BME280;42714;48.260;10.980;2024-02-26T21:53:56;958.8;;;5.7;82.4
51227;BME280;42714;48.260;10.980;2024-02-26T21:58:57;958.9;;;5.6;83.3
51227;BME280;42714;48.260;10.980;2024-02-26T22:03:58;959.0;;;5.5;84.4
51227;BME280;42714;48.260;10.980;2024-02-26T22:08:59;959.0;;;5.5;84.6
51227;BME280;42714;48.260;10.980;2024-02-26T22:14:00;959.0;;;5.5;84.2
51227;BME280;42714;48.260;10.980;2024-02-26T22:19:01;959.0;;;5.5;83.9
51227;BME280;42714;48.260;10.980;2024-02-26T22:24:02;959.1;;;5.5;83.6
51227;BME280;42714;48.260;10.980;2024-02-26T22:29:03;959.1;;;5.5;83.4
51227;BME280;42714;48.260;10.980;2024-02-26T22:34:04;959.1;;;5.6;83.3
51227;BME280;42714;48.260;10.980;2024-02-26T22:39:05;959.1;;;5.6;82.9
51227;BME280;42714;48.260;10.980;2024-02-26T22:44:06;959.2;;;5.6;82.8
51227;BME280;42714;48.260;10.980;2024-02-26T22:49:07;959.3;;;5.6;82.8
51227;BME280;42714;48.260;10.980;2024-02-26T22:54:08;959.4;;;5.6;82.8
51227;BME280;42714;48.260;10.980;2024-02-26T22:59:09;959.6;;;5.5;83.0
51227;BME280;42714;48.260;10.980;2024-02-26T23:04:10;959.6;;;5.5;83.2
51227;BME280;42714;48.260;10.980;2024-02-26T23:09:11;959.6;;;5.5;83.4
51227;BME280;42714;48.260;10.980;2024-02-26T23:14:12;959.7;;;5.4;83.6
51227;BME280;42714;48.260;10.980;2024-02-26T23:19:13;959.8;;;5.4;83.6
51227;BME280;42714;48.260;10.980;2024-02-26T23:24:14;960.0;;;5.4;83.7
51227;BME280;42714;48.260;10.980;2024-02-26T23:29:15;959.8;;;5.5;83.4
51227;BME280;42714;48.260;10.980;2024-02-26T23:34:16;959.7;;;5.5;83.0
51227;BME280;42714;48.260;10.980;2024-02-26T23:39:17;959.8;;;5.4;82.9
51227;BME280;42714;48.260;10.980;2024-02-26T23:44:18;959.8;;;5.5;82.9
51227;BME280;42714;48.260;10.980;2024-02-26T23:49:19;959.9;;;5.4;82.9
51227;BME280;42714;48.260;10.980;2024-02-26T23:54:20;959.9;;;5.4;82.9
51227;BME280;42714;48.260;10.980;2024-02-26T23:59:21;960.0;;;5.4;82.9
